Airfield :
LOGIN :

Register | Disclaimer

   EN    FR    IT 

 










Legend :    VFR   Marginal VFR   IFR   Intensive IFR   Very Intensive IFR
Visi :
Ceiling :
>= 8 km
>= 3000ft
5 to 8 km
1000 to 3000 ft
1500m to 5 km
500 to 1000 ft
800 to 1500m
200 to 500 ft
< 800m
< 200 ft
Symbols :   Thunderstorms  Fog  Heavy snow  Heavy precipitations  Wind > 20 kt
SIGMETs :     Misc.  Thunderstorms  Icing  Turbulence  Mountain Waves  Volcanic Ashes







- Airport Elevation : 116 ft
- IATA code : ISC
- Download approach charts


EGHE - Scilly Isles / St Mary's

CURRENT METAR :
  • 210850Z 15013KT 9999 SCT007 17/15 Q1004

EXPIRED METARs :
  • 210820Z 16014KT 9999 FEW005 SCT013 17/15 Q1004
  • 210750Z 15014KT 9999 SCT008 17/14 Q1004
  • 210720Z 15016KT 9999 FEW045 17/14 Q1004
  • 210650Z 14016KT 9999 FEW045 17/14 Q1004
  • 210620Z 14017KT CAVOK 17/13 Q1004

TAF COR TAF EGHE
Valid from the 21 at 09:00 until the 21 at 18:00 UTC


210845Z 2109/2118 16015KT 9999 FEW018
TEMPO 2109/2118 7000 SHRA
PROB30
TEMPO 2109/2118 4000 +SHRA SCT004 BKN008
No reported NOTAMs for that airfield.



MET'MAP, your aeronautical weather chart ! - Copyright ORBIFLY December 2007 - Disclaimer

ORBIFLY MET'MAP TEAM :

Programming & Development : Alexandra Zaïnal
Concept & Development : Baudouin d'Aumeries
Co-Development & Prog : Marc-Olivier Méhu
Technical & hardware support : Manuel Goepfert

Contact : metmap@orbifly.com




SOURCES & CREDITS :

   NOAA